BODC Cruise Metadata Report for Jia Geng cruise KK1903 (GP09)
Introduction
This report collates information from the BODC cruise inventory and oceanographic databases. It presents
- Cruise Inventory Information
- A summary of BODC data holdings for the cruise from the
- References - including cruise tracks and cruise reports
Cruise Inventory Information
| Long name | Jia Geng cruise KK1903 (GP09) |
|---|---|
| Short name | KK1903 (GP09) |
| Objectives and Narrative |
Objectives
1. To examine the vertical profiles of TEIs and their spatial distribution in the wNP 2. To fingerprint the sources and transport of TEIs in the wNP 3. To constrain the nutrient (co)limitation of nitrogen fixation and primary production in the wNP 4. To investigate the regeneration of micro- and macro-nutrients in the wNP 5. To understand the TEIs biogeochemical cycling in the wNP with the integration of regional biogeochemical models |
| Ship | Jia Geng |
| Departure Port | Xiamen, China |
| Departure Date | 2019-04-25 |
| Arrival Port | Xiamen, China |
| Arrival Date | 2019-06-13 |
| Principal Scientist(s) | Cai Yihua (Xiamen University State Key Laboratory of Marine Environmental Science), Zhou Kuanbo (Xiamen University State Key Laboratory of Marine Environmental Science) |
| Responsible Organisation | Xiamen University State Key Laboratory of Marine Environmental Science |
| Associated Project(s) | GEOTRACES -Trace elements and their isotopes in the water column |
| IHB Sea Areas Visited | North West Pacific Ocean (limit 180W), Philippine Sea |
| Marsden Squares Visited | 57/58/59/60/61 |
| Work Area Description | |
| Unable to lookup cruise bounds at this time | |
| Work Area Bounding Polygon | |
| Southern Limit | unknown |
| Northern Limit | unknown |
| Western Limit | unknown |
| Eastern Limit | unknown |
Cruise Inventory Datasets
No information on datasets is currently available for this cruise
Cruise Inventory Mooring/Buoy Operations
No information on datasets is currently available
Summary of BODC Data Holdings for the Cruise
National Oceanographic Database
Summary
| # Series | Instrument Description | Parameters |
|---|---|---|
| 102 | CTD/STD cast |
Chlorophyll pigment concentrations in water bodies Dissolved oxygen parameters in the water column Reference numbers Salinity of the water column Temperature of the water column Transmittance and attenuance of the water column Vertical spatial coordinates |
Note: Parameter terms are taken from the BODC Parameter Discovery Vocabulary XML (SKOS)
Full List
| BODC Reference | Instrument Description | Date/Time | Location | |
|---|---|---|---|---|
| 2212650 | CTD/STD cast | 2019-06-01 20:24Z | 11° 0' N, 145° 0' E | Click for more |
| 2212662 | CTD/STD cast | 2019-06-01 21:40Z | 11° 0' N, 144° 59' E | Click for more |
| 2212674 | CTD/STD cast | 2019-06-02 02:05Z | 11° 3' N, 144° 57' E | Click for more |
| 2212686 | CTD/STD cast | 2019-06-02 05:23Z | 11° 0' N, 144° 58' E | Click for more |
| 2212698 | CTD/STD cast | 2019-06-02 06:56Z | 11° 0' N, 144° 57' E | Click for more |
| 2212705 | CTD/STD cast | 2019-04-26 19:58Z | 21° 0' N, 121° 15' E | Click for more |
| 2212717 | CTD/STD cast | 2019-04-27 02:12Z | 21° 0' N, 121° 14' E | Click for more |
| 2212729 | CTD/STD cast | 2019-04-27 14:51Z | 21° 9' N, 121° 14' E | Click for more |
| 2212730 | CTD/STD cast | 2019-04-27 17:44Z | 21° 0' N, 121° 14' E | Click for more |
| 2212742 | CTD/STD cast | 2019-04-27 19:53Z | 21° 2' N, 121° 11' E | Click for more |
| 2212754 | CTD/STD cast | 2019-04-28 00:14Z | 21° 0' N, 121° 15' E | Click for more |
| 2212766 | CTD/STD cast | 2019-04-28 02:15Z | 21° 3' N, 121° 11' E | Click for more |
| 2212778 | CTD/STD cast | 2019-04-28 07:50Z | 21° 1' N, 121° 13' E | Click for more |
| 2212791 | CTD/STD cast | 2019-06-03 07:24Z | 11° 0' N, 140° 5' E | Click for more |
| 2212809 | CTD/STD cast | 2019-06-03 15:47Z | 11° 1' N, 139° 48' E | Click for more |
| 2212810 | CTD/STD cast | 2019-06-03 16:58Z | 11° 1' N, 139° 47' E | Click for more |
| 2212822 | CTD/STD cast | 2019-06-03 23:16Z | 11° 3' N, 139° 45' E | Click for more |
| 2212834 | CTD/STD cast | 2019-04-29 02:09Z | 21° 15' N, 121° 2' E | Click for more |
| 2212846 | CTD/STD cast | 2019-04-29 01:26Z | 21° 14' N, 121° 2' E | Click for more |
| 2212858 | CTD/STD cast | 2019-04-29 06:11Z | 20° 55' N, 121° 17' E | Click for more |
| 2212871 | CTD/STD cast | 2019-04-29 10:26Z | 20° 57' N, 121° 19' E | Click for more |
| 2212883 | CTD/STD cast | 2019-04-29 15:10Z | 21° 4' N, 121° 20' E | Click for more |
| 2212895 | CTD/STD cast | 2019-04-29 17:59Z | 20° 57' N, 121° 19' E | Click for more |
| 2212902 | CTD/STD cast | 2019-06-05 02:17Z | 11° 0' N, 135° 0' E | Click for more |
| 2212914 | CTD/STD cast | 2019-06-05 07:00Z | 11° 1' N, 134° 59' E | Click for more |
| 2212926 | CTD/STD cast | 2019-06-05 08:52Z | 11° 2' N, 134° 57' E | Click for more |
| 2212938 | CTD/STD cast | 2019-06-05 19:18Z | 11° 0' N, 134° 41' E | Click for more |
| 2212951 | CTD/STD cast | 2019-06-06 17:49Z | 11° 0' N, 130° 0' E | Click for more |
| 2212963 | CTD/STD cast | 2019-06-06 18:58Z | 11° 0' N, 129° 57' E | Click for more |
| 2212975 | CTD/STD cast | 2019-06-07 01:57Z | 11° 3' N, 129° 54' E | Click for more |
| 2212987 | CTD/STD cast | 2019-06-07 13:41Z | 11° 13' N, 129° 39' E | Click for more |
| 2212999 | CTD/STD cast | 2019-06-08 14:19Z | 15° 30' N, 127° 55' E | Click for more |
| 2213002 | CTD/STD cast | 2019-06-09 06:15Z | 15° 30' N, 127° 48' E | Click for more |
| 2213014 | CTD/STD cast | 2019-06-09 07:02Z | 15° 30' N, 127° 47' E | Click for more |
| 2213026 | CTD/STD cast | 2019-06-09 08:06Z | 15° 30' N, 127° 46' E | Click for more |
| 2213038 | CTD/STD cast | 2019-06-10 12:43Z | 19° 7' N, 124° 22' E | Click for more |
| 2213051 | CTD/STD cast | 2019-06-10 13:33Z | 19° 8' N, 124° 22' E | Click for more |
| 2213063 | CTD/STD cast | 2019-06-10 17:33Z | 19° 12' N, 124° 22' E | Click for more |
| 2213075 | CTD/STD cast | 2019-05-01 09:45Z | 20° 0' N, 125° 49' E | Click for more |
| 2213087 | CTD/STD cast | 2019-05-01 21:28Z | 20° 6' N, 125° 55' E | Click for more |
| 2213099 | CTD/STD cast | 2019-05-02 05:20Z | 20° 2' N, 125° 51' E | Click for more |
| 2213106 | CTD/STD cast | 2019-05-02 06:20Z | 20° 2' N, 125° 52' E | Click for more |
| 2213118 | CTD/STD cast | 2019-05-05 04:07Z | 19° 18' N, 128° 7' E | Click for more |
| 2213131 | CTD/STD cast | 2019-05-03 13:13Z | 18° 36' N, 130° 25' E | Click for more |
| 2213143 | CTD/STD cast | 2019-05-03 20:50Z | 18° 33' N, 130° 25' E | Click for more |
| 2213155 | CTD/STD cast | 2019-05-03 23:39Z | 18° 31' N, 130° 24' E | Click for more |
| 2213167 | CTD/STD cast | 2019-05-04 13:57Z | 18° 36' N, 130° 24' E | Click for more |
| 2213179 | CTD/STD cast | 2019-05-19 16:19Z | 17° 12' N, 135° 0' E | Click for more |
| 2213180 | CTD/STD cast | 2019-05-19 17:28Z | 17° 11' N, 135° 0' E | Click for more |
| 2213192 | CTD/STD cast | 2019-05-19 23:47Z | 17° 11' N, 135° 1' E | Click for more |
| 2213211 | CTD/STD cast | 2019-05-20 10:48Z | 17° 9' N, 135° 20' E | Click for more |
| 2213223 | CTD/STD cast | 2019-05-21 14:22Z | 17° 12' N, 140° 0' E | Click for more |
| 2213235 | CTD/STD cast | 2019-05-21 15:35Z | 17° 11' N, 140° 0' E | Click for more |
| 2213247 | CTD/STD cast | 2019-05-22 00:38Z | 17° 10' N, 140° 1' E | Click for more |
| 2213259 | CTD/STD cast | 2019-05-22 08:13Z | 17° 11' N, 140° 10' E | Click for more |
| 2213260 | CTD/STD cast | 2019-05-23 10:42Z | 17° 12' N, 145° 0' E | Click for more |
| 2213272 | CTD/STD cast | 2019-05-23 12:18Z | 17° 11' N, 145° 0' E | Click for more |
| 2213284 | CTD/STD cast | 2019-05-23 18:45Z | 17° 9' N, 145° 0' E | Click for more |
| 2213296 | CTD/STD cast | 2019-05-24 02:08Z | 17° 9' N, 145° 1' E | Click for more |
| 2213303 | CTD/STD cast | 2019-05-24 03:59Z | 17° 9' N, 145° 1' E | Click for more |
| 2213315 | CTD/STD cast | 2019-05-25 13:09Z | 14° 6' N, 150° 0' E | Click for more |
| 2213327 | CTD/STD cast | 2019-05-25 14:42Z | 14° 6' N, 149° 58' E | Click for more |
| 2213339 | CTD/STD cast | 2019-05-25 22:11Z | 14° 8' N, 150° 0' E | Click for more |
| 2213340 | CTD/STD cast | 2019-05-26 09:18Z | 14° 15' N, 149° 52' E | Click for more |
| 2213352 | CTD/STD cast | 2019-05-27 22:03Z | 11° 0' N, 154° 59' E | Click for more |
| 2213364 | CTD/STD cast | 2019-05-27 23:04Z | 11° 0' N, 154° 58' E | Click for more |
| 2213376 | CTD/STD cast | 2019-05-28 01:26Z | 10° 59' N, 154° 55' E | Click for more |
| 2213388 | CTD/STD cast | 2019-05-28 13:32Z | 11° 2' N, 154° 42' E | Click for more |
| 2213407 | CTD/STD cast | 2019-05-28 15:11Z | 11° 1' N, 154° 47' E | Click for more |
| 2213419 | CTD/STD cast | 2019-05-28 20:34Z | 11° 1' N, 154° 46' E | Click for more |
| 2213420 | CTD/STD cast | 2019-05-29 00:00Z | 11° 1' N, 154° 52' E | Click for more |
| 2213432 | CTD/STD cast | 2019-05-29 06:41Z | 11° 3' N, 154° 52' E | Click for more |
| 2213444 | CTD/STD cast | 2019-05-29 08:14Z | 11° 3' N, 154° 51' E | Click for more |
| 2213456 | CTD/STD cast | 2019-05-29 10:03Z | 11° 0' N, 155° 0' E | Click for more |
| 2213468 | CTD/STD cast | 2019-05-29 22:01Z | 10° 56' N, 154° 43' E | Click for more |
| 2213481 | CTD/STD cast | 2019-05-29 23:19Z | 10° 56' N, 154° 43' E | Click for more |
| 2213493 | CTD/STD cast | 2019-05-31 00:07Z | 11° 0' N, 150° 0' E | Click for more |
| 2213500 | CTD/STD cast | 2019-05-31 01:12Z | 11° 0' N, 149° 58' E | Click for more |
| 2213512 | CTD/STD cast | 2019-05-31 08:14Z | 11° 3' N, 149° 55' E | Click for more |
| 2213524 | CTD/STD cast | 2019-05-31 20:31Z | 11° 7' N, 149° 34' E | Click for more |
| 2213536 | CTD/STD cast | 2019-06-01 23:37Z | 11° 1' N, 144° 58' E | Click for more |
| 2213548 | CTD/STD cast | 2019-04-27 11:37Z | 21° 5' N, 121° 13' E | Click for more |
| 2213561 | CTD/STD cast | 2019-06-03 17:45Z | 11° 1' N, 139° 46' E | Click for more |
| 2213573 | CTD/STD cast | 2019-04-28 09:45Z | 21° 4' N, 121° 10' E | Click for more |
| 2213585 | CTD/STD cast | 2019-04-30 00:53Z | 21° 2' N, 121° 10' E | Click for more |
| 2213597 | CTD/STD cast | 2019-06-05 03:14Z | 11° 0' N, 135° 0' E | Click for more |
| 2213604 | CTD/STD cast | 2019-06-06 20:09Z | 11° 0' N, 129° 57' E | Click for more |
| 2213616 | CTD/STD cast | 2019-06-08 18:39Z | 15° 31' N, 127° 54' E | Click for more |
| 2213628 | CTD/STD cast | 2019-06-10 16:26Z | 19° 12' N, 124° 22' E | Click for more |
| 2213641 | CTD/STD cast | 2019-05-02 00:19Z | 20° 0' N, 125° 49' E | Click for more |
| 2213653 | CTD/STD cast | 2019-05-03 15:12Z | 18° 36' N, 130° 25' E | Click for more |
| 2213665 | CTD/STD cast | 2019-05-19 18:22Z | 17° 11' N, 135° 0' E | Click for more |
| 2213677 | CTD/STD cast | 2019-05-21 19:20Z | 17° 11' N, 140° 1' E | Click for more |
| 2213689 | CTD/STD cast | 2019-05-23 15:05Z | 17° 10' N, 145° 0' E | Click for more |
| 2213690 | CTD/STD cast | 2019-05-25 15:52Z | 14° 7' N, 149° 57' E | Click for more |
| 2213708 | CTD/STD cast | 2019-05-27 23:37Z | 11° 0' N, 155° 0' E | Click for more |
| 2213721 | CTD/STD cast | 2019-05-29 00:55Z | 11° 1' N, 154° 52' E | Click for more |
| 2213733 | CTD/STD cast | 2019-05-31 02:09Z | 11° 1' N, 149° 57' E | Click for more |
| 2213745 | CTD/STD cast | 2019-04-26 02:15Z | 21° 0' N, 119° 59' E | Click for more |
| 2213757 | CTD/STD cast | 2019-05-17 08:45Z | 19° 58' N, 125° 52' E | Click for more |
| 2213769 | CTD/STD cast | 2019-05-18 12:04Z | 18° 35' N, 130° 26' E | Click for more |
| 2213770 | CTD/STD cast | 2019-05-18 13:07Z | 18° 38' N, 130° 26' E | Click for more |
Project Database
No data currently held for this cruise in the BODC Project Database


